Time;durP1;ratioP1;P1;durP2;ratioP2;P2;SDS_P1;SDS_P2;PMS_P1;PMS_P2;Temp;Humidity;BMP_temperature;BMP_pressure;BME280_temperature;BME280_humidity;BME280_pressure;Samples;Min_cycle;Max_cycle;Signal;HPM_P1;HPM_P2
2024/04/10 00:00:20;;;;;;;10.73;2.30;;;14.60;99.90;;;15.53;62.82;96383.00;2359395;56;26145;-75
2024/04/10 00:02:47;;;;;;;6.30;2.22;;;14.60;99.90;;;15.46;63.06;96379.00;2359715;56;26160;-77
2024/04/10 00:05:13;;;;;;;6.57;2.03;;;14.50;99.90;;;15.29;63.38;96378.00;2359790;56;26196;-75
2024/04/10 00:07:40;;;;;;;12.90;2.45;;;14.40;99.90;;;15.23;63.52;96388.00;2359582;56;26120;-74
2024/04/10 00:10:07;;;;;;;6.95;2.55;;;14.40;99.90;;;15.29;63.58;96391.00;2359791;56;26223;-75
2024/04/10 00:12:34;;;;;;;9.93;2.72;;;14.40;99.90;;;15.25;63.73;96401.00;2359538;56;26669;-76
2024/04/10 00:15:00;;;;;;;3.80;1.80;;;14.40;99.90;;;15.15;64.14;96407.00;2359913;56;26784;-76
2024/04/10 00:17:30;;;;;;;15.65;2.50;;;14.40;99.90;;;15.20;63.82;96410.00;2359822;56;26089;-76
2024/04/10 00:19:56;;;;;;;5.90;2.33;;;14.30;99.90;;;15.06;63.49;96420.00;2359474;56;26605;-76
2024/04/10 00:22:23;;;;;;;9.15;2.58;;;14.30;99.90;;;15.02;63.15;96429.00;2359771;56;26917;-76
2024/04/10 00:24:53;;;;;;;7.32;2.40;;;14.40;99.90;;;15.13;62.61;96431.00;2359594;56;26302;-75
2024/04/10 00:27:22;;;;;;;10.73;2.50;;;14.40;99.90;;;15.20;62.66;96436.00;2359752;56;26734;-75
2024/04/10 00:29:50;;;;;;;3.72;1.90;;;14.50;99.90;;;15.06;63.29;96444.00;2363507;56;26113;-76
2024/04/10 00:32:17;;;;;;;7.47;2.50;;;14.40;99.90;;;15.11;63.31;96441.00;2363437;56;26914;-76
2024/04/10 00:34:43;;;;;;;13.57;2.95;;;14.40;99.90;;;15.23;63.90;96449.00;2362905;56;26089;-77
2024/04/10 00:37:10;;;;;;;7.50;2.40;;;14.50;99.90;;;15.14;61.64;96459.00;2362756;56;26184;-76
2024/04/10 00:39:36;;;;;;;8.93;2.33;;;14.50;99.50;;;15.16;60.87;96463.00;2362928;56;26136;-76
2024/04/10 00:42:03;;;;;;;12.18;2.65;;;14.50;99.90;;;15.13;62.48;96465.00;2363139;56;26176;-75
2024/04/10 00:44:30;;;;;;;2.67;1.95;;;14.50;99.80;;;15.25;61.25;96463.00;2363607;56;26109;-77
2024/04/10 00:46:57;;;;;;;4.40;2.08;;;14.50;99.90;;;15.33;62.35;96468.00;2363289;56;26054;-77
2024/04/10 00:49:24;;;;;;;7.25;2.53;;;14.40;99.90;;;15.29;63.38;96467.00;2363360;56;26069;-75
2024/04/10 00:51:51;;;;;;;7.95;2.53;;;14.40;99.90;;;15.30;63.19;96469.00;2363846;56;26109;-77
2024/04/10 00:54:19;;;;;;;4.95;2.45;;;14.40;99.90;;;15.26;62.02;96475.00;2363681;56;26145;-78
2024/04/10 00:56:45;;;;;;;9.13;2.40;;;14.30;99.90;;;15.12;62.85;96475.00;2363892;56;26157;-74
2024/04/10 00:59:12;;;;;;;3.53;2.05;;;14.20;99.90;;;15.01;63.06;96477.00;2362912;56;26172;-76
2024/04/10 01:01:39;;;;;;;7.35;2.40;;;14.20;99.90;;;14.98;63.72;96484.00;2363512;56;26125;-74
2024/04/10 01:04:05;;;;;;;4.12;2.42;;;14.10;99.90;;;15.01;63.66;96482.00;2362749;56;26658;-76
2024/04/10 01:06:33;;;;;;;11.63;2.62;;;14.10;99.90;;;14.89;65.26;96477.00;2360655;56;26372;-75
2024/04/10 01:09:00;;;;;;;8.50;2.55;;;14.20;99.90;;;14.94;64.34;96482.00;2359516;56;26149;-76
2024/04/10 01:11:29;;;;;;;10.18;2.12;;;14.10;99.90;;;14.91;64.49;96487.00;2359768;56;26125;-77
2024/04/10 01:13:56;;;;;;;4.17;2.20;;;14.10;99.90;;;14.93;64.71;96502.00;2360002;56;27321;-76
2024/04/10 01:16:23;;;;;;;4.75;2.05;;;14.00;99.90;;;14.95;64.44;96507.00;2359825;56;26085;-77
2024/04/10 01:18:50;;;;;;;8.43;2.77;;;14.00;99.90;;;14.87;64.68;96506.00;2359416;56;26118;-76
2024/04/10 01:21:17;;;;;;;10.23;2.43;;;13.90;99.90;;;14.79;64.60;96508.00;2359957;56;26508;-75
2024/04/10 01:23:46;;;;;;;6.70;2.37;;;13.90;99.90;;;14.69;64.68;96514.00;2359362;56;26950;-75
2024/04/10 01:26:14;;;;;;;5.63;2.27;;;13.80;99.90;;;14.38;66.00;96511.00;2360050;56;26621;-74
2024/04/10 01:28:41;;;;;;;13.70;2.73;;;13.70;99.90;;;14.42;65.45;96509.00;2360158;56;26196;-76
2024/04/10 01:31:08;;;;;;;8.43;2.20;;;13.60;99.90;;;14.23;66.04;96522.00;2360277;56;26251;-75
2024/04/10 01:33:34;;;;;;;9.37;2.70;;;13.70;99.90;;;14.44;65.03;96530.00;2360418;56;26136;-76
2024/04/10 01:36:12;;;;;;;5.03;2.53;;;13.80;99.90;;;14.60;63.71;96534.00;2364086;56;26049;-74
2024/04/10 01:38:40;;;;;;;10.40;2.75;;;14.10;99.90;;;14.83;62.49;96534.00;2363816;56;26082;-75
2024/04/10 01:41:08;;;;;;;4.82;2.05;;;14.00;99.90;;;14.65;64.10;96538.00;2363951;56;26563;-77
2024/04/10 01:43:35;;;;;;;5.20;2.40;;;13.90;99.90;;;14.65;64.38;96543.00;2363912;56;26160;-75
2024/04/10 01:46:02;;;;;;;4.68;2.37;;;13.90;99.90;;;14.69;65.03;96538.00;2363739;56;26069;-77
2024/04/10 01:48:28;;;;;;;6.30;2.42;;;13.90;99.90;;;14.64;65.07;96536.00;2363884;56;26165;-76
2024/04/10 01:50:55;;;;;;;9.10;1.90;;;14.00;99.90;;;14.70;63.76;96539.00;2363833;56;26089;-75
2024/04/10 01:53:23;;;;;;;4.63;2.33;;;14.00;99.90;;;14.66;63.57;96540.00;2363658;56;26219;-76
2024/04/10 01:55:51;;;;;;;4.93;2.40;;;14.10;99.90;;;14.79;64.18;96550.00;2363980;56;26062;-77
2024/04/10 01:58:18;;;;;;;10.17;2.67;;;14.10;99.90;;;14.86;65.09;96551.00;2363992;56;26076;-77
2024/04/10 02:00:46;;;;;;;9.65;2.28;;;14.10;99.90;;;14.90;64.44;96561.00;2364242;56;26097;-77
2024/04/10 02:03:13;;;;;;;10.35;2.37;;;14.20;99.90;;;15.09;63.03;96572.00;2363688;56;26189;-75
2024/04/10 02:05:40;;;;;;;8.88;2.50;;;14.40;99.90;;;15.27;64.97;96574.00;2364144;56;26097;-76
2024/04/10 02:08:07;;;;;;;5.03;2.72;;;14.40;99.90;;;15.23;65.30;96572.00;2364019;56;26527;-74
2024/04/10 02:10:33;;;;;;;7.80;2.45;;;14.50;99.90;;;15.24;62.97;96577.00;2364134;56;26082;-74
2024/04/10 02:13:00;;;;;;;5.50;2.40;;;14.60;99.90;;;15.41;64.94;96578.00;2363794;56;26109;-77
2024/04/10 02:15:27;;;;;;;6.60;2.65;;;14.60;99.90;;;15.42;64.86;96584.00;2363660;56;26060;-77
2024/04/10 02:17:53;;;;;;;8.55;1.92;;;14.40;99.90;;;15.37;65.09;96576.00;2363925;56;26129;-77
2024/04/10 02:20:21;;;;;;;16.48;3.10;;;14.40;99.90;;;15.29;65.08;96582.00;2363827;56;26176;-75
2024/04/10 02:22:48;;;;;;;5.10;2.58;;;14.40;99.90;;;15.14;66.32;96589.00;2364191;56;26120;-74
2024/04/10 02:25:15;;;;;;;10.23;2.72;;;14.30;99.90;;;15.09;65.59;96588.00;2364236;56;26078;-74
2024/04/10 02:27:41;;;;;;;6.95;2.15;;;14.30;99.90;;;15.09;65.12;96590.00;2364075;56;26167;-77
2024/04/10 02:30:10;;;;;;;7.90;2.75;;;14.40;99.90;;;15.27;64.11;96596.00;2363905;56;26112;-74
2024/04/10 02:32:36;;;;;;;7.60;2.67;;;14.60;99.90;;;15.40;62.98;96597.00;2362847;56;26160;-75
2024/04/10 02:35:03;;;;;;;10.05;2.53;;;14.60;99.90;;;15.52;63.58;96608.00;2363242;56;26117;-74
2024/04/10 02:37:30;;;;;;;6.95;2.78;;;14.70;99.90;;;15.59;62.83;96606.00;2349832;56;26059;-76
2024/04/10 02:39:58;;;;;;;18.42;2.58;;;14.70;99.90;;;15.56;63.92;96620.00;2334652;57;26083;-77
2024/04/10 02:42:25;;;;;;;8.70;2.67;;;14.70;99.90;;;15.65;63.52;96621.00;2334030;57;26122;-77
2024/04/10 02:44:52;;;;;;;11.52;2.60;;;14.70;99.90;;;15.56;63.50;96618.00;2334078;57;26592;-75
2024/04/10 02:47:19;;;;;;;13.45;2.70;;;14.80;99.90;;;15.68;63.90;96612.00;2333832;57;26566;-77
2024/04/10 02:49:45;;;;;;;6.12;2.83;;;14.80;99.90;;;15.51;64.31;96620.00;2334545;57;26139;-75
2024/04/10 02:52:12;;;;;;;6.72;2.42;;;14.60;99.90;;;15.43;65.09;96621.00;2333952;57;26098;-75
2024/04/10 02:54:39;;;;;;;9.43;2.70;;;14.70;99.90;;;15.46;64.80;96618.00;2333882;57;26060;-77
2024/04/10 02:57:05;;;;;;;7.35;2.20;;;14.70;99.90;;;15.45;64.79;96616.00;2334002;57;26094;-75
2024/04/10 02:59:32;;;;;;;11.32;3.12;;;14.70;99.90;;;15.40;65.47;96616.00;2333557;57;26165;-77
2024/04/10 03:01:58;;;;;;;13.75;2.75;;;14.70;99.90;;;15.41;65.37;96615.00;2333850;57;26101;-77
2024/04/10 03:04:25;;;;;;;5.60;2.37;;;14.60;99.90;;;15.39;64.82;96631.00;2334335;57;26577;-77
2024/04/10 03:06:53;;;;;;;7.80;2.33;;;14.60;99.90;;;15.40;63.92;96629.00;2332039;57;26158;-76
2024/04/10 03:09:21;;;;;;;5.07;2.47;;;14.70;99.90;;;15.50;62.81;96635.00;2334668;57;26098;-77
2024/04/10 03:11:47;;;;;;;10.32;3.20;;;14.80;99.90;;;15.56;62.94;96638.00;2334779;57;26191;-76
2024/04/10 03:14:15;;;;;;;10.88;2.75;;;14.80;99.90;;;15.54;62.18;96638.00;2334468;57;26075;-77
2024/04/10 03:16:41;;;;;;;8.45;3.10;;;14.90;99.90;;;15.69;61.38;96643.00;2334023;57;26135;-78
2024/04/10 03:19:08;;;;;;;13.23;2.92;;;15.10;99.90;;;15.99;59.66;96640.00;2334303;57;26683;-77
2024/04/10 03:21:35;;;;;;;13.13;2.70;;;15.20;99.90;;;15.98;61.14;96644.00;2334789;57;26067;-75
2024/04/10 03:24:01;;;;;;;7.22;2.37;;;15.20;99.90;;;16.00;61.10;96653.00;2334824;57;26195;-75
2024/04/10 03:26:28;;;;;;;8.65;2.35;;;15.20;99.90;;;16.01;61.20;96659.00;2334503;57;26553;-76
2024/04/10 03:28:54;;;;;;;9.75;2.85;;;15.30;99.90;;;16.07;60.37;96663.00;2334197;57;26118;-75
2024/04/10 03:31:21;;;;;;;4.85;2.50;;;15.30;99.90;;;16.13;60.56;96673.00;2334042;57;26111;-75
2024/04/10 03:33:47;;;;;;;6.37;2.45;;;15.30;99.90;;;16.12;62.33;96671.00;2334011;57;26520;-78
2024/04/10 03:36:14;;;;;;;13.95;2.85;;;15.30;99.90;;;16.13;61.07;96670.00;2333530;57;26210;-74
2024/04/10 03:38:41;;;;;;;7.18;2.60;;;15.30;99.90;;;16.12;60.42;96680.00;2332817;57;26159;-75
2024/04/10 03:41:07;;;;;;;11.15;2.50;;;15.40;99.90;;;16.23;60.57;96686.00;2332161;57;26126;-76
2024/04/10 03:43:34;;;;;;;10.98;2.92;;;15.50;99.90;;;16.33;61.00;96682.00;2333149;57;26589;-77
2024/04/10 03:46:01;;;;;;;11.63;2.87;;;15.50;99.90;;;16.35;61.16;96683.00;2332875;57;26635;-77
2024/04/10 03:48:27;;;;;;;12.32;2.65;;;15.50;99.90;;;16.41;59.12;96685.00;2332543;57;26186;-77
2024/04/10 03:50:59;;;;;;;13.80;2.80;;;15.60;99.20;;;16.48;57.69;96685.00;2333116;57;26190;-77
2024/04/10 03:53:26;;;;;;;6.85;2.50;;;15.60;99.90;;;16.46;60.25;96679.00;2333774;57;26731;-76
2024/04/10 03:55:52;;;;;;;5.45;1.92;;;15.60;99.90;;;16.35;62.22;96689.00;2332057;57;26083;-77
2024/04/10 03:58:19;;;;;;;7.75;2.50;;;15.50;99.90;;;16.26;61.74;96686.00;2333571;57;26103;-76
2024/04/10 04:00:47;;;;;;;9.90;2.83;;;15.60;99.90;;;16.46;59.15;96688.00;2332541;57;26170;-77
2024/04/10 04:03:13;;;;;;;8.35;2.53;;;15.50;99.80;;;16.33;59.10;96696.00;2332969;57;26667;-77
2024/04/10 04:05:40;;;;;;;9.23;2.35;;;15.50;99.90;;;16.24;59.87;96710.00;2333837;57;26158;-75
2024/04/10 04:08:08;;;;;;;8.40;1.60;;;15.50;99.90;;;16.24;60.70;96709.00;2333444;57;26122;-75
2024/04/10 04:10:34;;;;;;;5.90;1.50;;;15.50;98.40;;;16.34;56.15;96690.00;2332416;57;26525;-75
2024/04/10 04:13:01;;;;;;;8.00;2.05;;;15.70;97.30;;;16.55;54.58;96710.00;2332836;57;26166;-76
2024/04/10 04:15:27;;;;;;;3.65;1.50;;;15.70;97.50;;;16.49;55.10;96709.00;2332460;57;26135;-75
2024/04/10 04:17:54;;;;;;;8.52;1.42;;;15.70;96.60;;;16.57;53.59;96721.00;2332944;57;26116;-77
2024/04/10 04:20:21;;;;;;;2.12;1.50;;;15.90;95.70;;;16.65;52.34;96721.00;2332900;57;26106;-77
2024/04/10 04:22:47;;;;;;;3.28;1.15;;;16.00;95.30;;;16.78;51.66;96732.00;2331617;57;26493;-77
2024/04/10 04:25:14;;;;;;;1.77;1.02;;;16.10;94.00;;;16.91;49.47;96745.00;2332046;57;26613;-78
2024/04/10 04:27:40;;;;;;;3.35;1.30;;;16.10;93.70;;;16.89;49.43;96744.00;2332585;57;26087;-76
2024/04/10 04:30:08;;;;;;;5.90;1.37;;;16.10;93.90;;;16.81;49.87;96751.00;2332553;57;26533;-75
2024/04/10 04:32:35;;;;;;;1.62;1.10;;;16.00;93.90;;;16.81;49.73;96756.00;2333763;57;26051;-77
2024/04/10 04:35:02;;;;;;;1.48;0.80;;;16.10;92.70;;;16.77;48.10;96753.00;2333341;57;26549;-75
2024/04/10 04:37:28;;;;;;;3.10;0.93;;;16.10;92.70;;;16.90;48.04;96759.00;2333149;57;26099;-75
2024/04/10 04:39:55;;;;;;;4.50;1.00;;;16.10;92.60;;;16.81;47.66;96766.00;2332708;57;26198;-75
2024/04/10 04:42:22;;;;;;;1.52;0.70;;;16.00;92.00;;;16.83;47.29;96772.00;2331269;57;26134;-77
2024/04/10 04:44:49;;;;;;;1.15;0.70;;;16.10;91.80;;;16.90;46.83;96776.00;2331851;57;26182;-76
2024/04/10 04:47:15;;;;;;;1.92;0.95;;;16.10;91.50;;;16.71;46.79;96784.00;2330776;57;26517;-75
2024/04/10 04:49:42;;;;;;;6.82;0.82;;;15.90;91.50;;;16.56;47.05;96781.00;2330552;57;26203;-76
2024/04/10 04:52:09;;;;;;;0.85;0.62;;;15.80;91.80;;;16.51;47.49;96789.00;2329242;57;26947;-75
2024/04/10 04:54:35;;;;;;;2.90;0.62;;;15.90;91.50;;;16.53;46.92;96799.00;2329539;57;26600;-77
2024/04/10 04:57:02;;;;;;;5.47;1.15;;;15.80;91.30;;;16.39;46.80;96787.00;2329482;57;26127;-75
2024/04/10 04:59:29;;;;;;;4.72;1.02;;;15.70;91.20;;;16.36;46.86;96800.00;2329635;57;26126;-77
2024/04/10 05:01:55;;;;;;;1.52;0.75;;;15.70;91.20;;;16.29;46.68;96798.00;2329927;57;26915;-74
2024/04/10 05:07:08;;;;;;;1.62;0.60;;;15.70;91.10;;;16.29;46.85;96802.00;2329751;57;26138;-76
2024/04/10 05:09:34;;;;;;;1.02;0.85;;;15.70;91.10;;;16.36;46.87;96808.00;2330316;57;26576;-75
2024/04/10 05:12:01;;;;;;;0.70;0.70;;;15.70;91.00;;;16.33;46.63;96825.00;2331500;57;26616;-76
2024/04/10 05:14:30;;;;;;;2.80;0.62;;;15.70;90.70;;;16.35;46.41;96836.00;2330853;57;27120;-74
2024/04/10 05:16:57;;;;;;;1.27;0.85;;;15.70;90.40;;;16.21;46.12;96839.00;2331496;57;26571;-75
2024/04/10 05:19:25;;;;;;;1.42;0.80;;;15.60;90.70;;;16.19;46.49;96840.00;2330552;57;26171;-75
2024/04/10 05:21:51;;;;;;;8.27;1.15;;;15.60;90.70;;;16.23;46.51;96840.00;2330461;57;26134;-76
2024/04/10 05:24:18;;;;;;;6.00;0.90;;;15.60;90.60;;;16.29;46.14;96852.00;2330820;57;26138;-77
2024/04/10 05:26:45;;;;;;;0.65;0.65;;;15.60;90.40;;;16.39;45.67;96859.00;2328792;57;26655;-77
2024/04/10 05:29:12;;;;;;;4.90;0.62;;;15.70;90.00;;;16.34;45.23;96863.00;2330561;57;26538;-78
2024/04/10 05:31:39;;;;;;;4.72;1.10;;;15.70;90.20;;;16.23;45.77;96869.00;2329191;57;26879;-75
2024/04/10 05:34:06;;;;;;;4.22;1.10;;;15.50;90.10;;;16.10;45.73;96865.00;2328674;57;26629;-74
2024/04/10 05:36:33;;;;;;;1.95;0.90;;;15.60;89.60;;;16.29;45.00;96870.00;2329224;57;26541;-77
2024/04/10 05:39:01;;;;;;;1.33;0.73;;;15.50;89.60;;;16.11;45.42;96871.00;2329046;57;26568;-74
2024/04/10 05:41:28;;;;;;;1.62;0.68;;;15.50;89.80;;;16.11;45.43;96874.00;2327387;57;26076;-76
2024/04/10 05:43:54;;;;;;;2.83;1.05;;;15.50;89.70;;;16.16;45.24;96871.00;2329888;57;26672;-75
2024/04/10 05:46:22;;;;;;;10.32;0.98;;;15.50;89.70;;;16.35;44.91;96877.00;2328661;57;26559;-76
2024/04/10 05:48:48;;;;;;;2.92;0.95;;;15.60;89.50;;;16.29;44.94;96876.00;2329261;57;26126;-76
2024/04/10 05:51:15;;;;;;;4.97;0.90;;;15.60;88.80;;;16.35;44.61;96877.00;2329435;57;26619;-75
2024/04/10 05:53:42;;;;;;;0.85;0.60;;;15.70;88.40;;;16.45;44.14;96877.00;2328463;57;26118;-75
2024/04/10 05:56:08;;;;;;;2.87;0.77;;;15.70;87.80;;;16.25;43.96;96888.00;2329358;57;26141;-76
2024/04/10 05:58:36;;;;;;;1.45;0.75;;;15.60;88.20;;;16.25;44.27;96892.00;2330516;57;26939;-77
2024/04/10 06:01:09;;;;;;;1.02;0.60;;;15.60;88.30;;;16.18;44.66;96893.00;2327962;57;26063;-77
2024/04/10 06:03:36;;;;;;;1.70;0.75;;;15.60;88.10;;;16.22;44.37;96895.00;2329096;57;26182;-74
2024/04/10 06:06:13;;;;;;;1.05;0.95;;;15.70;88.20;;;16.37;44.29;96902.00;2329828;57;26824;-77
2024/04/10 06:08:40;;;;;;;2.15;0.82;;;15.70;89.00;;;16.48;44.89;96909.00;2329186;57;26110;-75
2024/04/10 06:11:08;;;;;;;1.05;0.80;;;15.80;89.00;;;16.44;45.13;96912.00;2330316;57;26079;-75
2024/04/10 06:13:35;;;;;;;2.83;1.00;;;15.80;89.90;;;16.50;45.68;96918.00;2330954;57;26273;-77
2024/04/10 06:16:03;;;;;;;2.40;0.73;;;15.80;90.70;;;16.58;46.48;96925.00;2329696;57;26091;-77
2024/04/10 06:18:30;;;;;;;1.40;0.70;;;15.80;91.00;;;16.63;47.02;96932.00;2329817;57;26259;-74
2024/04/10 06:21:02;;;;;;;2.78;0.90;;;15.70;91.70;;;16.66;47.96;96938.00;2326328;57;26083;-75
2024/04/10 06:23:35;;;;;;;3.72;1.17;;;15.80;91.20;;;16.65;47.26;96950.00;2330158;57;26202;-76
2024/04/10 06:26:03;;;;;;;2.62;0.95;;;15.70;89.70;;;16.46;45.35;96948.00;2329623;57;26636;-75
2024/04/10 06:28:31;;;;;;;4.62;0.80;;;15.70;88.80;;;16.48;44.50;96949.00;2329724;57;26713;-77
2024/04/10 06:30:59;;;;;;;1.67;0.55;;;15.50;88.70;;;16.19;44.85;96952.00;2143531;58;10014036;-77
2024/04/10 06:33:26;;;;;;;1.15;0.77;;;15.30;87.30;;;15.73;44.39;96954.00;2302981;58;26931;-76
2024/04/10 06:35:52;;;;;;;0.68;0.62;;;14.90;87.80;;;15.36;44.91;96957.00;2303801;58;26232;-76
2024/04/10 06:38:19;;;;;;;1.98;0.40;;;14.80;88.70;;;15.11;45.92;96959.00;2303928;58;26765;-77
2024/04/10 06:40:56;;;;;;;1.27;0.63;;;14.80;88.70;;;15.25;45.66;96955.00;2304090;58;26535;-76
2024/04/10 06:43:23;;;;;;;0.93;0.52;;;14.70;88.10;;;15.06;45.60;96955.00;2304907;58;26133;-74
2024/04/10 06:46:05;;;;;;;0.50;0.50;;;14.70;88.00;;;15.11;45.34;96960.00;2303731;58;26630;-77
2024/04/10 06:48:32;;;;;;;0.82;0.50;;;14.70;87.70;;;15.22;45.01;96966.00;2305133;58;26185;-77
2024/04/10 06:51:05;;;;;;;0.95;0.40;;;14.70;87.60;;;15.13;45.00;96966.00;2305910;57;26127;-77
2024/04/10 06:53:32;;;;;;;0.57;0.50;;;14.70;86.80;;;15.25;44.39;96965.00;2303742;58;26093;-77
2024/04/10 06:56:02;;;;;;;1.95;0.50;;;14.70;87.10;;;15.20;44.64;96963.00;2303026;58;26575;-75
2024/04/10 06:58:31;;;;;;;4.00;0.43;;;14.80;87.50;;;15.32;44.90;96972.00;2303184;58;26141;-75
2024/04/10 07:01:06;;;;;;;1.87;0.50;;;15.10;87.00;;;15.63;44.19;96970.00;2302858;58;26098;-76
2024/04/10 07:03:36;;;;;;;4.78;0.75;;;15.00;86.90;;;15.53;44.34;96970.00;2328398;57;26131;-76
2024/04/10 07:06:10;;;;;;;0.73;0.50;;;14.90;86.00;;;15.52;43.61;96971.00;2326258;57;26150;-77
2024/04/10 07:08:42;;;;;;;0.52;0.40;;;14.90;85.80;;;15.39;43.56;96972.00;2327680;57;26762;-77
2024/04/10 07:11:16;;;;;;;2.12;0.60;;;14.80;86.10;;;15.28;43.88;96986.00;2328325;57;26529;-76
2024/04/10 07:13:51;;;;;;;1.70;0.60;;;14.90;85.90;;;15.56;43.59;96994.00;2329790;57;26507;-75
2024/04/10 07:16:19;;;;;;;0.50;0.50;;;15.10;86.50;;;15.63;43.95;96992.00;2328861;57;26485;-77
2024/04/10 07:18:46;;;;;;;0.45;0.45;;;15.10;85.50;;;15.79;43.12;96996.00;2328418;57;26182;-77
2024/04/10 07:21:15;;;;;;;1.65;0.50;;;15.10;84.80;;;15.73;42.67;97000.00;2328631;57;26563;-75
2024/04/10 07:23:45;;;;;;;0.70;0.30;;;15.10;85.70;;;15.82;43.18;97005.00;2329014;57;26087;-75
2024/04/10 07:26:20;;;;;;;0.47;0.40;;;14.90;84.60;;;15.47;42.85;97012.00;2327077;57;26449;-77
2024/04/10 07:28:52;;;;;;;1.67;1.58;;;14.80;85.00;;;15.26;43.35;97019.00;2327093;57;26131;-76
2024/04/10 07:31:36;;;;;;;0.55;0.45;;;14.90;85.50;;;15.42;43.67;97019.00;2328776;57;27436;-77
2024/04/10 07:34:04;;;;;;;1.20;0.65;;;14.90;85.20;;;15.48;43.23;97024.00;2326599;57;26084;-74
2024/04/10 07:36:33;;;;;;;0.55;0.55;;;15.00;85.30;;;15.63;43.00;97026.00;2327210;57;26182;-76
2024/04/10 07:39:06;;;;;;;1.67;0.40;;;15.00;83.80;;;15.61;42.18;97031.00;2327489;57;26575;-74
2024/04/10 07:41:33;;;;;;;1.58;0.52;;;14.90;84.40;;;15.52;42.72;97041.00;2329457;57;26468;-76
2024/04/10 07:44:00;;;;;;;3.70;0.55;;;14.90;84.70;;;15.47;43.06;97036.00;2329062;57;26122;-75
2024/04/10 07:46:26;;;;;;;0.62;0.52;;;15.10;84.40;;;15.80;42.52;97046.00;2329589;57;26186;-74
2024/04/10 07:48:55;;;;;;;0.47;0.47;;;15.10;83.80;;;15.69;42.17;97053.00;2329562;57;26947;-77
2024/04/10 07:51:25;;;;;;;3.95;0.70;;;15.10;84.00;;;15.63;42.54;97056.00;2329375;57;26123;-75
2024/04/10 07:53:51;;;;;;;1.25;0.47;;;15.20;83.30;;;15.89;41.88;97059.00;2327149;57;26664;-75
2024/04/10 07:56:18;;;;;;;1.95;0.50;;;15.30;83.20;;;16.05;41.57;97063.00;2327956;57;26158;-76
2024/04/10 07:58:45;;;;;;;0.75;0.47;;;15.60;82.90;;;16.40;40.98;97060.00;2328076;57;26197;-77
2024/04/10 08:01:12;;;;;;;0.43;0.30;;;15.40;82.60;;;16.21;41.04;97073.00;2327796;57;27002;-77
2024/04/10 08:03:39;;;;;;;1.87;0.60;;;15.30;82.70;;;15.92;41.37;97075.00;2330092;57;26679;-77
2024/04/10 08:06:09;;;;;;;2.35;0.93;;;14.90;83.30;;;15.37;42.36;97081.00;2329977;57;26086;-77
2024/04/10 08:08:36;;;;;;;0.88;0.62;;;14.90;83.80;;;15.42;42.56;97085.00;2328766;57;26628;-75
2024/04/10 08:11:07;;;;;;;1.05;0.37;;;14.90;83.60;;;15.54;42.33;97087.00;2330600;57;26608;-77
2024/04/10 08:13:34;;;;;;;0.60;0.57;;;14.90;83.90;;;15.60;42.46;97097.00;2329145;57;26206;-77
2024/04/10 08:16:06;;;;;;;1.48;1.05;;;14.80;83.80;;;15.32;42.64;97091.00;2328998;57;26625;-76
2024/04/10 08:18:38;;;;;;;5.80;0.62;;;14.90;84.00;;;15.54;42.63;97101.00;2329570;57;26529;-76
2024/04/10 08:21:11;;;;;;;12.45;1.45;;;15.00;82.60;;;15.55;41.68;97100.00;2328903;57;26734;-74
2024/04/10 08:23:39;;;;;;;3.03;0.75;;;15.00;82.80;;;15.64;41.85;97103.00;2328820;57;26067;-77
2024/04/10 08:26:18;;;;;;;1.62;0.52;;;15.00;81.90;;;15.55;41.40;97116.00;2330904;57;26195;-76
2024/04/10 08:28:50;;;;;;;0.80;0.62;;;15.00;82.00;;;15.44;41.57;97112.00;2329848;57;26731;-75
2024/04/10 08:31:27;;;;;;;1.50;0.65;;;15.00;82.60;;;15.50;41.97;97121.00;2328404;57;26163;-76
2024/04/10 08:33:54;;;;;;;2.92;0.85;;;15.00;83.30;;;15.50;42.47;97118.00;2329348;57;26083;-77
2024/04/10 08:36:23;;;;;;;2.37;0.80;;;15.00;82.00;;;15.39;41.76;97125.00;2328733;57;26119;-75
2024/04/10 08:38:51;;;;;;;1.62;0.80;;;15.10;83.10;;;15.70;42.17;97130.00;2329080;57;26166;-75
2024/04/10 08:41:22;;;;;;;0.40;0.40;;;15.30;81.80;;;15.87;41.15;97129.00;2327800;57;26198;-74
2024/04/10 08:43:51;;;;;;;4.22;0.62;;;15.40;81.70;;;16.00;40.99;97139.00;2329147;57;26651;-76
2024/04/10 08:46:20;;;;;;;1.23;0.68;;;15.30;82.50;;;15.95;41.76;97148.00;2328436;57;26794;-75
2024/04/10 08:48:52;;;;;;;2.05;0.40;;;15.30;81.50;;;15.83;41.03;97147.00;2327129;57;26897;-75
2024/04/10 08:51:22;;;;;;;5.37;0.88;;;15.30;81.70;;;15.96;41.05;97149.00;2326071;57;26982;-77
2024/04/10 08:53:54;;;;;;;0.40;0.40;;;15.30;82.10;;;16.03;41.30;97149.00;2327938;57;26083;-75
2024/04/10 08:56:21;;;;;;;0.68;0.65;;;15.40;80.90;;;16.20;40.26;97161.00;2326818;57;26150;-77
2024/04/10 08:58:48;;;;;;;0.40;0.40;;;15.40;81.70;;;16.09;40.91;97159.00;2327051;57;27045;-77
2024/04/10 09:01:33;;;;;;;1.33;0.55;;;15.40;81.20;;;15.86;40.78;97166.00;2325153;57;26527;-77
2024/04/10 09:04:10;;;;;;;2.33;0.77;;;15.30;81.70;;;15.94;41.07;97162.00;2325110;57;26405;-74
2024/04/10 09:06:38;;;;;;;0.75;0.70;;;15.50;81.40;;;16.20;40.75;97177.00;2326002;57;26555;-75
2024/04/10 09:09:07;;;;;;;1.58;0.80;;;15.50;81.30;;;16.22;40.50;97180.00;2325984;57;27686;-77
2024/04/10 09:11:34;;;;;;;2.20;0.93;;;15.50;81.50;;;16.17;40.90;97177.00;2326689;57;26174;-76
2024/04/10 09:14:11;;;;;;;2.37;0.93;;;15.60;81.90;;;16.33;41.00;97189.00;2327856;57;26424;-76
2024/04/10 09:16:38;;;;;;;1.25;0.60;;;15.80;80.90;;;16.63;40.13;97193.00;2327440;57;26203;-75
2024/04/10 09:19:13;;;;;;;8.45;1.87;;;15.80;80.70;;;16.46;40.02;97188.00;2329699;57;26627;-75
2024/04/10 09:21:42;;;;;;;0.47;0.47;;;15.70;80.40;;;16.48;39.86;97192.00;2329972;57;26122;-75
2024/04/10 09:24:09;;;;;;;2.30;0.70;;;15.70;81.20;;;16.35;40.09;97201.00;2330410;57;26612;-75
2024/04/10 09:26:48;;;;;;;11.27;1.73;;;15.60;80.50;;;16.25;40.25;97195.00;2330280;57;26182;-74
2024/04/10 09:29:18;;;;;;;3.00;0.47;;;15.50;80.50;;;16.25;40.33;97198.00;2329466;57;26080;-75
2024/04/10 09:31:50;;;;;;;4.50;0.60;;;15.40;80.50;;;16.16;40.20;97202.00;2331068;57;26119;-74
2024/04/10 09:34:22;;;;;;;0.47;0.47;;;15.40;80.40;;;16.02;40.43;97203.00;2330530;57;26983;-76
2024/04/10 09:36:50;;;;;;;0.77;0.50;;;15.40;80.90;;;16.15;40.51;97206.00;2330388;57;26139;-74
2024/04/10 09:39:22;;;;;;;12.05;0.90;;;15.50;80.90;;;16.22;40.45;97212.00;2331340;57;26253;-74
2024/04/10 09:41:57;;;;;;;0.93;0.30;;;15.60;80.80;;;16.44;40.25;97223.00;2331439;57;26139;-75
2024/04/10 09:44:30;;;;;;;0.62;0.50;;;15.80;80.80;;;16.44;40.51;97219.00;2330106;57;26068;-75
2024/04/10 09:47:01;;;;;;;0.68;0.50;;;15.90;82.00;;;16.75;40.61;97221.00;2331112;57;26824;-77
2024/04/10 09:49:40;;;;;;;1.52;0.75;;;16.20;79.30;;;17.07;38.97;97223.00;2330601;57;26154;-76
2024/04/10 09:52:11;;;;;;;1.27;0.60;;;16.30;79.00;;;17.05;38.87;97229.00;2330183;57;26177;-75
2024/04/10 09:54:40;;;;;;;3.10;0.45;;;16.00;78.60;;;16.72;38.95;97230.00;2328086;57;26073;-77
2024/04/10 09:57:11;;;;;;;0.30;0.30;;;16.00;79.40;;;16.76;39.36;97234.00;2331023;57;26087;-74
2024/04/10 09:59:38;;;;;;;3.20;0.40;;;16.00;79.20;;;16.87;38.98;97230.00;2332464;57;26098;-75
2024/04/10 10:02:19;;;;;;;3.30;0.50;;;16.20;78.90;;;16.92;38.96;97224.00;2330243;57;26611;-77
2024/04/10 10:04:46;;;;;;;2.55;0.70;;;16.00;79.20;;;16.77;39.27;97238.00;2329185;57;26071;-75
2024/04/10 10:07:23;;;;;;;4.97;0.80;;;16.00;79.10;;;16.76;39.20;97258.00;2328358;57;26079;-76
2024/04/10 10:09:50;;;;;;;3.78;0.50;;;16.00;79.80;;;16.66;39.74;97250.00;2328529;57;26916;-76
2024/04/10 10:12:27;;;;;;;3.22;0.60;;;15.90;79.40;;;16.72;39.36;97260.00;2329155;57;26067;-75
2024/04/10 10:14:54;;;;;;;0.62;0.50;;;15.80;79.70;;;16.64;39.73;97273.00;2330633;57;26078;-77
2024/04/10 10:17:27;;;;;;;1.00;0.60;;;15.70;80.00;;;16.34;40.17;97271.00;2330203;57;26080;-76
2024/04/10 10:19:53;;;;;;;0.47;0.45;;;15.50;81.10;;;16.13;41.07;97270.00;2329956;57;26910;-75
2024/04/10 10:22:20;;;;;;;2.67;0.55;;;15.60;80.40;;;16.21;40.52;97280.00;2329904;57;26664;-74
2024/04/10 10:25:00;;;;;;;1.08;0.70;;;15.30;79.90;;;15.82;40.59;97280.00;2328790;57;26937;-76